sensor_id;sensor_type;location;lat;lon;timestamp;temperature;humidity
23053;DHT22;11694;-36.632;-64.318;2022-09-30T00:01:25;15.80;99.90
23053;DHT22;11694;-36.632;-64.318;2022-09-30T00:03:54;15.80;99.90
23053;DHT22;11694;-36.632;-64.318;2022-09-30T00:06:23;15.80;99.90
23053;DHT22;11694;-36.632;-64.318;2022-09-30T00:08:50;15.70;99.90
23053;DHT22;11694;-36.632;-64.318;2022-09-30T00:11:24;15.60;99.90
23053;DHT22;11694;-36.632;-64.318;2022-09-30T00:13:52;15.50;99.90
23053;DHT22;11694;-36.632;-64.318;2022-09-30T00:16:22;15.40;99.90
23053;DHT22;11694;-36.632;-64.318;2022-09-30T00:18:49;15.40;99.90
23053;DHT22;11694;-36.632;-64.318;2022-09-30T00:21:18;15.30;99.90
23053;DHT22;11694;-36.632;-64.318;2022-09-30T00:23:45;15.30;99.90
23053;DHT22;11694;-36.632;-64.318;2022-09-30T00:26:16;15.20;99.90
23053;DHT22;11694;-36.632;-64.318;2022-09-30T00:28:44;15.20;99.90
23053;DHT22;11694;-36.632;-64.318;2022-09-30T00:31:14;15.10;99.90
23053;DHT22;11694;-36.632;-64.318;2022-09-30T00:33:42;15.10;99.90
23053;DHT22;11694;-36.632;-64.318;2022-09-30T00:36:09;15.00;99.90
23053;DHT22;11694;-36.632;-64.318;2022-09-30T00:38:36;15.00;99.90
23053;DHT22;11694;-36.632;-64.318;2022-09-30T00:41:03;15.00;1.00
23053;DHT22;11694;-36.632;-64.318;2022-09-30T00:43:43;15.00;1.00
23053;DHT22;11694;-36.632;-64.318;2022-09-30T00:46:35;14.90;1.00
23053;DHT22;11694;-36.632;-64.318;2022-09-30T00:49:18;14.80;1.00
23053;DHT22;11694;-36.632;-64.318;2022-09-30T00:51:52;14.80;1.00
23053;DHT22;11694;-36.632;-64.318;2022-09-30T00:54:22;14.80;1.00
23053;DHT22;11694;-36.632;-64.318;2022-09-30T00:56:56;14.70;1.00
23053;DHT22;11694;-36.632;-64.318;2022-09-30T00:59:33;14.70;1.00
23053;DHT22;11694;-36.632;-64.318;2022-09-30T01:02:01;14.70;1.00
23053;DHT22;11694;-36.632;-64.318;2022-09-30T01:04:30;14.70;1.00
23053;DHT22;11694;-36.632;-64.318;2022-09-30T01:07:09;14.70;1.00
23053;DHT22;11694;-36.632;-64.318;2022-09-30T01:09:40;14.60;1.00
23053;DHT22;11694;-36.632;-64.318;2022-09-30T01:12:14;14.50;1.00
23053;DHT22;11694;-36.632;-64.318;2022-09-30T01:14:43;14.60;1.00
23053;DHT22;11694;-36.632;-64.318;2022-09-30T01:25:45;14.50;1.00
23053;DHT22;11694;-36.632;-64.318;2022-09-30T01:31:13;14.40;1.00
23053;DHT22;11694;-36.632;-64.318;2022-09-30T01:34:05;14.40;1.00
23053;DHT22;11694;-36.632;-64.318;2022-09-30T01:43:04;14.40;1.00
23053;DHT22;11694;-36.632;-64.318;2022-09-30T01:45:56;14.30;1.00
23053;DHT22;11694;-36.632;-64.318;2022-09-30T01:48:45;14.40;1.00
23053;DHT22;11694;-36.632;-64.318;2022-09-30T01:54:17;14.50;1.00
23053;DHT22;11694;-36.632;-64.318;2022-09-30T01:56:48;14.40;1.00
23053;DHT22;11694;-36.632;-64.318;2022-09-30T01:59:23;14.40;1.00
23053;DHT22;11694;-36.632;-64.318;2022-09-30T02:01:55;14.40;1.00
23053;DHT22;11694;-36.632;-64.318;2022-09-30T02:04:32;14.40;1.00
23053;DHT22;11694;-36.632;-64.318;2022-09-30T02:07:04;14.30;1.00
23053;DHT22;11694;-36.632;-64.318;2022-09-30T02:09:40;14.20;1.00
23053;DHT22;11694;-36.632;-64.318;2022-09-30T02:12:12;14.20;1.00
23053;DHT22;11694;-36.632;-64.318;2022-09-30T02:14:51;14.10;1.00
23053;DHT22;11694;-36.632;-64.318;2022-09-30T02:17:23;14.00;1.00
23053;DHT22;11694;-36.632;-64.318;2022-09-30T02:20:09;14.00;1.00
23053;DHT22;11694;-36.632;-64.318;2022-09-30T02:22:47;14.00;1.00
23053;DHT22;11694;-36.632;-64.318;2022-09-30T02:25:43;13.90;1.00
23053;DHT22;11694;-36.632;-64.318;2022-09-30T02:28:14;13.80;1.00
23053;DHT22;11694;-36.632;-64.318;2022-09-30T02:30:48;13.70;1.00
23053;DHT22;11694;-36.632;-64.318;2022-09-30T02:33:31;13.70;1.00
23053;DHT22;11694;-36.632;-64.318;2022-09-30T02:39:12;13.60;1.00
23053;DHT22;11694;-36.632;-64.318;2022-09-30T02:41:46;13.50;1.00
23053;DHT22;11694;-36.632;-64.318;2022-09-30T02:44:15;13.50;1.00
23053;DHT22;11694;-36.632;-64.318;2022-09-30T02:49:38;13.50;1.00
23053;DHT22;11694;-36.632;-64.318;2022-09-30T02:55:39;13.50;1.00
23053;DHT22;11694;-36.632;-64.318;2022-09-30T02:58:16;13.50;1.00
23053;DHT22;11694;-36.632;-64.318;2022-09-30T03:00:47;13.40;1.00
23053;DHT22;11694;-36.632;-64.318;2022-09-30T03:03:16;13.40;1.00
23053;DHT22;11694;-36.632;-64.318;2022-09-30T03:05:44;13.40;1.00
23053;DHT22;11694;-36.632;-64.318;2022-09-30T03:08:12;13.30;1.00
23053;DHT22;11694;-36.632;-64.318;2022-09-30T03:10:39;13.20;1.00
23053;DHT22;11694;-36.632;-64.318;2022-09-30T03:13:14;13.20;1.00
23053;DHT22;11694;-36.632;-64.318;2022-09-30T03:19:15;13.10;1.00
23053;DHT22;11694;-36.632;-64.318;2022-09-30T03:24:43;13.00;1.00
23053;DHT22;11694;-36.632;-64.318;2022-09-30T03:27:29;13.00;1.00
23053;DHT22;11694;-36.632;-64.318;2022-09-30T03:30:08;12.90;1.00
23053;DHT22;11694;-36.632;-64.318;2022-09-30T03:38:25;12.70;1.00
23053;DHT22;11694;-36.632;-64.318;2022-09-30T03:44:10;12.70;1.00
23053;DHT22;11694;-36.632;-64.318;2022-09-30T03:46:41;12.80;1.00
23053;DHT22;11694;-36.632;-64.318;2022-09-30T03:49:22;12.70;1.00
23053;DHT22;11694;-36.632;-64.318;2022-09-30T03:51:50;12.80;1.00
23053;DHT22;11694;-36.632;-64.318;2022-09-30T03:54:17;12.80;1.00
23053;DHT22;11694;-36.632;-64.318;2022-09-30T03:56:44;12.80;1.00
23053;DHT22;11694;-36.632;-64.318;2022-09-30T03:59:18;12.80;1.00
23053;DHT22;11694;-36.632;-64.318;2022-09-30T04:01:48;12.70;1.00
23053;DHT22;11694;-36.632;-64.318;2022-09-30T04:04:16;12.70;1.00
23053;DHT22;11694;-36.632;-64.318;2022-09-30T04:06:43;12.70;1.00
23053;DHT22;11694;-36.632;-64.318;2022-09-30T04:09:10;12.70;1.00
23053;DHT22;11694;-36.632;-64.318;2022-09-30T04:11:37;12.70;1.00
23053;DHT22;11694;-36.632;-64.318;2022-09-30T04:14:04;12.70;1.00
23053;DHT22;11694;-36.632;-64.318;2022-09-30T04:16:32;12.60;1.00
23053;DHT22;11694;-36.632;-64.318;2022-09-30T04:18:59;12.60;1.00
23053;DHT22;11694;-36.632;-64.318;2022-09-30T04:21:26;12.60;1.00
23053;DHT22;11694;-36.632;-64.318;2022-09-30T04:23:54;12.60;1.00
23053;DHT22;11694;-36.632;-64.318;2022-09-30T04:26:21;12.60;1.00
23053;DHT22;11694;-36.632;-64.318;2022-09-30T04:28:49;12.60;1.00
23053;DHT22;11694;-36.632;-64.318;2022-09-30T04:31:17;12.50;1.00
23053;DHT22;11694;-36.632;-64.318;2022-09-30T04:33:46;12.50;1.00
23053;DHT22;11694;-36.632;-64.318;2022-09-30T04:36:13;12.40;1.00
23053;DHT22;11694;-36.632;-64.318;2022-09-30T04:38:40;12.40;1.00
23053;DHT22;11694;-36.632;-64.318;2022-09-30T04:41:10;12.30;1.00
23053;DHT22;11694;-36.632;-64.318;2022-09-30T04:43:39;12.30;1.00
23053;DHT22;11694;-36.632;-64.318;2022-09-30T04:46:10;12.30;1.00
23053;DHT22;11694;-36.632;-64.318;2022-09-30T04:48:37;12.20;1.00
23053;DHT22;11694;-36.632;-64.318;2022-09-30T04:51:05;12.20;1.00
23053;DHT22;11694;-36.632;-64.318;2022-09-30T04:53:32;12.10;1.00
23053;DHT22;11694;-36.632;-64.318;2022-09-30T04:56:00;12.10;1.00
23053;DHT22;11694;-36.632;-64.318;2022-09-30T04:58:28;12.10;1.30
23053;DHT22;11694;-36.632;-64.318;2022-09-30T05:01:08;12.00;5.60
23053;DHT22;11694;-36.632;-64.318;2022-09-30T05:03:35;11.90;11.30
23053;DHT22;11694;-36.632;-64.318;2022-09-30T05:06:03;11.80;14.20
23053;DHT22;11694;-36.632;-64.318;2022-09-30T05:08:31;11.80;11.30
23053;DHT22;11694;-36.632;-64.318;2022-09-30T05:11:01;11.80;13.70
23053;DHT22;11694;-36.632;-64.318;2022-09-30T05:13:35;11.70;17.60
23053;DHT22;11694;-36.632;-64.318;2022-09-30T05:16:02;11.60;18.90
23053;DHT22;11694;-36.632;-64.318;2022-09-30T05:18:30;11.60;20.20
23053;DHT22;11694;-36.632;-64.318;2022-09-30T05:20:59;11.50;23.40
23053;DHT22;11694;-36.632;-64.318;2022-09-30T05:23:29;11.50;29.50
23053;DHT22;11694;-36.632;-64.318;2022-09-30T05:25:56;11.40;26.90
23053;DHT22;11694;-36.632;-64.318;2022-09-30T05:28:23;11.40;25.70
23053;DHT22;11694;-36.632;-64.318;2022-09-30T05:30:57;11.30;32.40
23053;DHT22;11694;-36.632;-64.318;2022-09-30T05:33:26;11.30;34.50
23053;DHT22;11694;-36.632;-64.318;2022-09-30T05:35:57;11.10;34.40
23053;DHT22;11694;-36.632;-64.318;2022-09-30T05:38:25;11.10;37.90
23053;DHT22;11694;-36.632;-64.318;2022-09-30T05:40:52;11.00;44.70
23053;DHT22;11694;-36.632;-64.318;2022-09-30T05:43:19;11.00;34.10
23053;DHT22;11694;-36.632;-64.318;2022-09-30T05:45:54;11.00;46.10
23053;DHT22;11694;-36.632;-64.318;2022-09-30T05:48:23;11.00;48.30
23053;DHT22;11694;-36.632;-64.318;2022-09-30T05:50:57;11.00;43.70
23053;DHT22;11694;-36.632;-64.318;2022-09-30T05:53:26;10.90;46.70
23053;DHT22;11694;-36.632;-64.318;2022-09-30T05:55:53;10.90;49.60
23053;DHT22;11694;-36.632;-64.318;2022-09-30T05:58:21;10.80;45.80
23053;DHT22;11694;-36.632;-64.318;2022-09-30T06:00:49;10.80;38.40
23053;DHT22;11694;-36.632;-64.318;2022-09-30T06:03:17;10.90;38.70
23053;DHT22;11694;-36.632;-64.318;2022-09-30T06:05:45;10.90;39.10
23053;DHT22;11694;-36.632;-64.318;2022-09-30T06:08:13;10.90;39.60
23053;DHT22;11694;-36.632;-64.318;2022-09-30T06:10:42;10.80;42.70
23053;DHT22;11694;-36.632;-64.318;2022-09-30T06:13:09;10.80;47.90
23053;DHT22;11694;-36.632;-64.318;2022-09-30T06:15:37;10.80;48.10
23053;DHT22;11694;-36.632;-64.318;2022-09-30T06:18:07;10.80;46.00
23053;DHT22;11694;-36.632;-64.318;2022-09-30T06:20:35;10.70;43.70
23053;DHT22;11694;-36.632;-64.318;2022-09-30T06:23:03;10.80;37.50
23053;DHT22;11694;-36.632;-64.318;2022-09-30T06:25:30;10.80;31.10
23053;DHT22;11694;-36.632;-64.318;2022-09-30T06:27:58;10.90;30.70
23053;DHT22;11694;-36.632;-64.318;2022-09-30T06:30:25;10.90;37.00
23053;DHT22;11694;-36.632;-64.318;2022-09-30T06:32:56;10.90;29.40
23053;DHT22;11694;-36.632;-64.318;2022-09-30T06:35:23;10.90;26.70
23053;DHT22;11694;-36.632;-64.318;2022-09-30T06:37:52;10.90;25.00
23053;DHT22;11694;-36.632;-64.318;2022-09-30T06:40:19;10.90;21.00
23053;DHT22;11694;-36.632;-64.318;2022-09-30T06:42:47;11.00;13.90
23053;DHT22;11694;-36.632;-64.318;2022-09-30T06:45:15;11.00;15.30
23053;DHT22;11694;-36.632;-64.318;2022-09-30T06:47:47;11.00;12.70
23053;DHT22;11694;-36.632;-64.318;2022-09-30T06:50:17;11.10;7.80
23053;DHT22;11694;-36.632;-64.318;2022-09-30T06:52:44;11.10;5.60
23053;DHT22;11694;-36.632;-64.318;2022-09-30T06:55:11;11.10;8.50
23053;DHT22;11694;-36.632;-64.318;2022-09-30T06:57:40;11.10;1.00
23053;DHT22;11694;-36.632;-64.318;2022-09-30T07:00:08;11.20;2.50
23053;DHT22;11694;-36.632;-64.318;2022-09-30T07:02:35;11.20;1.00
23053;DHT22;11694;-36.632;-64.318;2022-09-30T07:05:02;11.10;5.00
23053;DHT22;11694;-36.632;-64.318;2022-09-30T07:07:29;11.10;8.60
23053;DHT22;11694;-36.632;-64.318;2022-09-30T07:10:00;11.00;11.30
23053;DHT22;11694;-36.632;-64.318;2022-09-30T07:12:27;11.00;9.20
23053;DHT22;11694;-36.632;-64.318;2022-09-30T07:14:54;10.90;8.90
23053;DHT22;11694;-36.632;-64.318;2022-09-30T07:17:26;11.00;6.30
23053;DHT22;11694;-36.632;-64.318;2022-09-30T07:19:54;10.90;11.60
23053;DHT22;11694;-36.632;-64.318;2022-09-30T07:22:21;10.80;9.90
23053;DHT22;11694;-36.632;-64.318;2022-09-30T07:25:01;10.80;15.70
23053;DHT22;11694;-36.632;-64.318;2022-09-30T07:27:31;10.80;16.30
23053;DHT22;11694;-36.632;-64.318;2022-09-30T07:29:59;10.70;17.10
23053;DHT22;11694;-36.632;-64.318;2022-09-30T07:32:27;10.70;19.50
23053;DHT22;11694;-36.632;-64.318;2022-09-30T07:34:54;10.60;13.30
23053;DHT22;11694;-36.632;-64.318;2022-09-30T07:37:24;10.70;24.30
23053;DHT22;11694;-36.632;-64.318;2022-09-30T07:39:52;10.60;24.50
23053;DHT22;11694;-36.632;-64.318;2022-09-30T07:42:19;10.60;20.30
23053;DHT22;11694;-36.632;-64.318;2022-09-30T07:44:48;10.50;26.80
23053;DHT22;11694;-36.632;-64.318;2022-09-30T07:47:17;10.50;36.10
23053;DHT22;11694;-36.632;-64.318;2022-09-30T07:49:45;10.40;34.90
23053;DHT22;11694;-36.632;-64.318;2022-09-30T07:52:13;10.40;32.50
23053;DHT22;11694;-36.632;-64.318;2022-09-30T07:54:41;10.30;39.60
23053;DHT22;11694;-36.632;-64.318;2022-09-30T07:57:08;10.30;44.80
23053;DHT22;11694;-36.632;-64.318;2022-09-30T07:59:38;10.20;45.80
23053;DHT22;11694;-36.632;-64.318;2022-09-30T08:02:06;10.20;45.10
23053;DHT22;11694;-36.632;-64.318;2022-09-30T08:04:34;10.10;46.60
23053;DHT22;11694;-36.632;-64.318;2022-09-30T08:07:02;10.10;43.40
23053;DHT22;11694;-36.632;-64.318;2022-09-30T08:09:30;10.10;49.80
23053;DHT22;11694;-36.632;-64.318;2022-09-30T08:11:57;10.00;54.80
23053;DHT22;11694;-36.632;-64.318;2022-09-30T08:14:26;10.00;57.50
23053;DHT22;11694;-36.632;-64.318;2022-09-30T08:16:54;10.00;45.50
23053;DHT22;11694;-36.632;-64.318;2022-09-30T08:19:26;9.90;52.80
23053;DHT22;11694;-36.632;-64.318;2022-09-30T08:21:54;9.90;53.20
23053;DHT22;11694;-36.632;-64.318;2022-09-30T08:24:22;9.90;56.00
23053;DHT22;11694;-36.632;-64.318;2022-09-30T08:26:49;9.90;52.60
23053;DHT22;11694;-36.632;-64.318;2022-09-30T08:29:17;9.90;54.80
23053;DHT22;11694;-36.632;-64.318;2022-09-30T08:31:44;9.90;50.50
23053;DHT22;11694;-36.632;-64.318;2022-09-30T08:34:11;9.90;51.10
23053;DHT22;11694;-36.632;-64.318;2022-09-30T08:36:39;9.90;51.00
23053;DHT22;11694;-36.632;-64.318;2022-09-30T08:39:06;9.90;53.90
23053;DHT22;11694;-36.632;-64.318;2022-09-30T08:44:24;9.80;60.80
23053;DHT22;11694;-36.632;-64.318;2022-09-30T08:52:47;9.80;52.10
23053;DHT22;11694;-36.632;-64.318;2022-09-30T08:55:24;9.80;53.90
23053;DHT22;11694;-36.632;-64.318;2022-09-30T08:57:54;9.80;51.40
23053;DHT22;11694;-36.632;-64.318;2022-09-30T09:00:22;9.70;58.40
23053;DHT22;11694;-36.632;-64.318;2022-09-30T09:02:57;9.80;55.30
23053;DHT22;11694;-36.632;-64.318;2022-09-30T09:08:17;9.80;64.10
23053;DHT22;11694;-36.632;-64.318;2022-09-30T09:20:19;9.80;65.40
23053;DHT22;11694;-36.632;-64.318;2022-09-30T09:22:50;9.70;65.20
23053;DHT22;11694;-36.632;-64.318;2022-09-30T09:25:19;9.80;70.30
23053;DHT22;11694;-36.632;-64.318;2022-09-30T09:27:56;9.70;73.10
23053;DHT22;11694;-36.632;-64.318;2022-09-30T09:30:28;9.60;74.10
23053;DHT22;11694;-36.632;-64.318;2022-09-30T09:32:59;9.60;78.00
23053;DHT22;11694;-36.632;-64.318;2022-09-30T09:44:04;9.30;90.20
23053;DHT22;11694;-36.632;-64.318;2022-09-30T09:46:59;9.30;91.70
23053;DHT22;11694;-36.632;-64.318;2022-09-30T09:49:35;9.30;94.00
23053;DHT22;11694;-36.632;-64.318;2022-09-30T09:54:44;9.30;93.10
23053;DHT22;11694;-36.632;-64.318;2022-09-30T09:57:16;9.30;93.90
23053;DHT22;11694;-36.632;-64.318;2022-09-30T10:00:09;9.30;93.00
23053;DHT22;11694;-36.632;-64.318;2022-09-30T10:03:04;9.30;95.60
23053;DHT22;11694;-36.632;-64.318;2022-09-30T10:05:35;9.20;94.20
23053;DHT22;11694;-36.632;-64.318;2022-09-30T10:08:37;9.20;98.00
23053;DHT22;11694;-36.632;-64.318;2022-09-30T10:11:16;9.10;95.70
23053;DHT22;11694;-36.632;-64.318;2022-09-30T10:13:46;9.10;99.90
23053;DHT22;11694;-36.632;-64.318;2022-09-30T10:16:33;9.10;99.90
23053;DHT22;11694;-36.632;-64.318;2022-09-30T10:19:03;9.10;99.90
23053;DHT22;11694;-36.632;-64.318;2022-09-30T10:21:31;9.10;99.90
23053;DHT22;11694;-36.632;-64.318;2022-09-30T10:23:58;9.10;99.90
23053;DHT22;11694;-36.632;-64.318;2022-09-30T10:26:44;9.10;99.90
23053;DHT22;11694;-36.632;-64.318;2022-09-30T10:29:27;9.20;99.90
23053;DHT22;11694;-36.632;-64.318;2022-09-30T10:31:55;9.30;99.90
23053;DHT22;11694;-36.632;-64.318;2022-09-30T10:34:39;9.30;99.90
23053;DHT22;11694;-36.632;-64.318;2022-09-30T10:37:12;9.40;99.90
23053;DHT22;11694;-36.632;-64.318;2022-09-30T10:39:42;9.50;99.90
23053;DHT22;11694;-36.632;-64.318;2022-09-30T10:42:16;9.50;99.90
23053;DHT22;11694;-36.632;-64.318;2022-09-30T10:44:52;9.60;99.90
23053;DHT22;11694;-36.632;-64.318;2022-09-30T10:47:24;9.70;99.90
23053;DHT22;11694;-36.632;-64.318;2022-09-30T10:50:05;9.70;99.90
23053;DHT22;11694;-36.632;-64.318;2022-09-30T10:52:46;9.80;99.90
23053;DHT22;11694;-36.632;-64.318;2022-09-30T10:55:40;9.90;99.90
23053;DHT22;11694;-36.632;-64.318;2022-09-30T10:58:47;10.20;98.20
23053;DHT22;11694;-36.632;-64.318;2022-09-30T11:01:37;10.30;97.10
23053;DHT22;11694;-36.632;-64.318;2022-09-30T11:04:14;10.40;94.90
23053;DHT22;11694;-36.632;-64.318;2022-09-30T11:06:45;10.50;96.00
23053;DHT22;11694;-36.632;-64.318;2022-09-30T11:09:23;10.70;92.60
23053;DHT22;11694;-36.632;-64.318;2022-09-30T11:11:59;10.90;92.50
23053;DHT22;11694;-36.632;-64.318;2022-09-30T11:14:37;11.40;79.00
23053;DHT22;11694;-36.632;-64.318;2022-09-30T11:17:21;12.10;60.20
23053;DHT22;11694;-36.632;-64.318;2022-09-30T11:19:55;12.70;49.00
23053;DHT22;11694;-36.632;-64.318;2022-09-30T11:25:04;13.20;15.50
23053;DHT22;11694;-36.632;-64.318;2022-09-30T11:27:57;13.50;10.40
23053;DHT22;11694;-36.632;-64.318;2022-09-30T11:30:44;13.70;11.40
23053;DHT22;11694;-36.632;-64.318;2022-09-30T11:36:28;14.10;1.00
23053;DHT22;11694;-36.632;-64.318;2022-09-30T11:42:18;14.50;1.00
23053;DHT22;11694;-36.632;-64.318;2022-09-30T11:45:20;15.00;1.00
23053;DHT22;11694;-36.632;-64.318;2022-09-30T11:48:01;15.30;1.00
23053;DHT22;11694;-36.632;-64.318;2022-09-30T11:53:36;15.60;1.00
23053;DHT22;11694;-36.632;-64.318;2022-09-30T11:56:27;16.00;1.00
23053;DHT22;11694;-36.632;-64.318;2022-09-30T11:59:01;16.10;1.00
23053;DHT22;11694;-36.632;-64.318;2022-09-30T12:01:39;16.20;1.00
23053;DHT22;11694;-36.632;-64.318;2022-09-30T12:04:21;16.30;1.00
23053;DHT22;11694;-36.632;-64.318;2022-09-30T12:07:03;16.60;1.00
23053;DHT22;11694;-36.632;-64.318;2022-09-30T12:09:39;16.70;1.00
23053;DHT22;11694;-36.632;-64.318;2022-09-30T12:12:15;17.20;1.00
23053;DHT22;11694;-36.632;-64.318;2022-09-30T12:15:01;17.10;99.90
23053;DHT22;11694;-36.632;-64.318;2022-09-30T12:17:42;17.20;99.90
23053;DHT22;11694;-36.632;-64.318;2022-09-30T12:20:41;17.40;99.90
23053;DHT22;11694;-36.632;-64.318;2022-09-30T12:25:55;17.90;99.90
23053;DHT22;11694;-36.632;-64.318;2022-09-30T12:46:13;19.90;99.90
23053;DHT22;11694;-36.632;-64.318;2022-09-30T12:48:50;19.90;99.90
23053;DHT22;11694;-36.632;-64.318;2022-09-30T12:51:33;19.70;99.90
23053;DHT22;11694;-36.632;-64.318;2022-09-30T12:54:33;19.60;99.90
23053;DHT22;11694;-36.632;-64.318;2022-09-30T12:56:55;19.70;99.90
23053;DHT22;11694;-36.632;-64.318;2022-09-30T12:59:37;19.80;99.90
23053;DHT22;11694;-36.632;-64.318;2022-09-30T13:02:06;19.80;99.90
23053;DHT22;11694;-36.632;-64.318;2022-09-30T13:04:36;19.90;99.90
23053;DHT22;11694;-36.632;-64.318;2022-09-30T13:07:15;20.00;99.90
23053;DHT22;11694;-36.632;-64.318;2022-09-30T13:09:58;20.20;99.90
23053;DHT22;11694;-36.632;-64.318;2022-09-30T13:12:43;20.60;99.90
23053;DHT22;11694;-36.632;-64.318;2022-09-30T13:20:56;20.90;99.90
23053;DHT22;11694;-36.632;-64.318;2022-09-30T13:23:52;20.90;99.90
23053;DHT22;11694;-36.632;-64.318;2022-09-30T13:28:51;21.20;99.90
23053;DHT22;11694;-36.632;-64.318;2022-09-30T13:31:20;21.50;99.90
23053;DHT22;11694;-36.632;-64.318;2022-09-30T13:37:01;22.50;99.90
23053;DHT22;11694;-36.632;-64.318;2022-09-30T13:39:48;23.00;99.90
23053;DHT22;11694;-36.632;-64.318;2022-09-30T13:45:05;23.00;99.90
23053;DHT22;11694;-36.632;-64.318;2022-09-30T13:48:17;23.10;99.90
23053;DHT22;11694;-36.632;-64.318;2022-09-30T13:50:48;23.30;99.90
23053;DHT22;11694;-36.632;-64.318;2022-09-30T13:53:31;23.50;99.90
23053;DHT22;11694;-36.632;-64.318;2022-09-30T13:56:03;23.40;99.90
23053;DHT22;11694;-36.632;-64.318;2022-09-30T13:59:01;23.70;99.90
23053;DHT22;11694;-36.632;-64.318;2022-09-30T14:08:26;23.60;99.90
23053;DHT22;11694;-36.632;-64.318;2022-09-30T14:11:01;24.00;99.90
23053;DHT22;11694;-36.632;-64.318;2022-09-30T14:19:18;24.60;99.90
23053;DHT22;11694;-36.632;-64.318;2022-09-30T14:21:54;24.70;99.90
23053;DHT22;11694;-36.632;-64.318;2022-09-30T14:24:28;24.50;99.90
23053;DHT22;11694;-36.632;-64.318;2022-09-30T14:30:05;24.70;99.90
23053;DHT22;11694;-36.632;-64.318;2022-09-30T14:32:46;24.80;99.90
23053;DHT22;11694;-36.632;-64.318;2022-09-30T14:35:23;25.50;99.90
23053;DHT22;11694;-36.632;-64.318;2022-09-30T14:38:02;25.80;99.90
23053;DHT22;11694;-36.632;-64.318;2022-09-30T14:40:35;25.70;99.90
23053;DHT22;11694;-36.632;-64.318;2022-09-30T14:43:07;25.50;99.90
23053;DHT22;11694;-36.632;-64.318;2022-09-30T14:45:41;25.50;99.90
23053;DHT22;11694;-36.632;-64.318;2022-09-30T14:48:19;25.70;99.90
23053;DHT22;11694;-36.632;-64.318;2022-09-30T14:50:55;25.70;99.90
23053;DHT22;11694;-36.632;-64.318;2022-09-30T14:53:29;26.00;99.90
23053;DHT22;11694;-36.632;-64.318;2022-09-30T14:55:57;26.20;99.90
23053;DHT22;11694;-36.632;-64.318;2022-09-30T14:58:28;26.10;99.90
23053;DHT22;11694;-36.632;-64.318;2022-09-30T15:01:14;26.00;99.90
23053;DHT22;11694;-36.632;-64.318;2022-09-30T15:03:44;26.00;99.90
23053;DHT22;11694;-36.632;-64.318;2022-09-30T15:06:18;26.20;99.90
23053;DHT22;11694;-36.632;-64.318;2022-09-30T15:08:47;26.10;99.90
23053;DHT22;11694;-36.632;-64.318;2022-09-30T15:11:23;26.20;99.90
23053;DHT22;11694;-36.632;-64.318;2022-09-30T15:14:43;26.50;99.90
23053;DHT22;11694;-36.632;-64.318;2022-09-30T15:16:58;26.80;99.90
23053;DHT22;11694;-36.632;-64.318;2022-09-30T15:19:32;27.00;99.90
23053;DHT22;11694;-36.632;-64.318;2022-09-30T15:22:02;27.00;99.90
23053;DHT22;11694;-36.632;-64.318;2022-09-30T15:24:31;27.10;99.90
23053;DHT22;11694;-36.632;-64.318;2022-09-30T15:27:00;26.90;99.90
23053;DHT22;11694;-36.632;-64.318;2022-09-30T15:29:28;26.90;99.90
23053;DHT22;11694;-36.632;-64.318;2022-09-30T15:34:26;27.50;99.90
23053;DHT22;11694;-36.632;-64.318;2022-09-30T15:36:58;27.60;99.90
23053;DHT22;11694;-36.632;-64.318;2022-09-30T15:39:30;27.50;99.90
23053;DHT22;11694;-36.632;-64.318;2022-09-30T15:45:29;27.50;99.90
23053;DHT22;11694;-36.632;-64.318;2022-09-30T15:48:03;27.50;99.90
23053;DHT22;11694;-36.632;-64.318;2022-09-30T15:50:39;27.30;99.90
23053;DHT22;11694;-36.632;-64.318;2022-09-30T15:53:18;27.10;99.90
23053;DHT22;11694;-36.632;-64.318;2022-09-30T15:55:49;27.20;99.90
23053;DHT22;11694;-36.632;-64.318;2022-09-30T15:58:36;27.20;99.90
23053;DHT22;11694;-36.632;-64.318;2022-09-30T16:01:20;27.20;99.90
23053;DHT22;11694;-36.632;-64.318;2022-09-30T16:03:56;27.30;99.90
23053;DHT22;11694;-36.632;-64.318;2022-09-30T16:08:59;27.30;99.90
23053;DHT22;11694;-36.632;-64.318;2022-09-30T16:11:31;27.10;99.90
23053;DHT22;11694;-36.632;-64.318;2022-09-30T16:14:01;27.20;99.90
23053;DHT22;11694;-36.632;-64.318;2022-09-30T16:16:32;27.20;99.90
23053;DHT22;11694;-36.632;-64.318;2022-09-30T16:19:00;27.20;99.90
23053;DHT22;11694;-36.632;-64.318;2022-09-30T16:21:41;27.10;99.90
23053;DHT22;11694;-36.632;-64.318;2022-09-30T16:27:24;27.30;99.90
23053;DHT22;11694;-36.632;-64.318;2022-09-30T16:29:56;27.20;99.90
23053;DHT22;11694;-36.632;-64.318;2022-09-30T16:32:23;27.40;99.90
23053;DHT22;11694;-36.632;-64.318;2022-09-30T16:34:50;27.40;99.90
23053;DHT22;11694;-36.632;-64.318;2022-09-30T16:37:19;27.50;99.90
23053;DHT22;11694;-36.632;-64.318;2022-09-30T16:39:46;27.60;99.90
23053;DHT22;11694;-36.632;-64.318;2022-09-30T16:42:15;27.90;99.90
23053;DHT22;11694;-36.632;-64.318;2022-09-30T16:44:42;27.70;99.90
23053;DHT22;11694;-36.632;-64.318;2022-09-30T16:47:17;27.60;99.90
23053;DHT22;11694;-36.632;-64.318;2022-09-30T16:49:46;27.50;99.90
23053;DHT22;11694;-36.632;-64.318;2022-09-30T16:52:14;27.30;99.90
23053;DHT22;11694;-36.632;-64.318;2022-09-30T16:54:41;27.20;99.90
23053;DHT22;11694;-36.632;-64.318;2022-09-30T16:57:13;27.10;99.90
23053;DHT22;11694;-36.632;-64.318;2022-09-30T16:59:40;27.20;99.90
23053;DHT22;11694;-36.632;-64.318;2022-09-30T17:02:12;27.50;99.90
23053;DHT22;11694;-36.632;-64.318;2022-09-30T17:04:39;27.50;99.90
23053;DHT22;11694;-36.632;-64.318;2022-09-30T17:07:10;27.60;99.90
23053;DHT22;11694;-36.632;-64.318;2022-09-30T17:09:43;27.70;99.90
23053;DHT22;11694;-36.632;-64.318;2022-09-30T17:12:11;27.70;99.90
23053;DHT22;11694;-36.632;-64.318;2022-09-30T17:14:38;27.50;99.90
23053;DHT22;11694;-36.632;-64.318;2022-09-30T17:17:08;27.50;99.90
23053;DHT22;11694;-36.632;-64.318;2022-09-30T17:19:36;27.50;99.90
23053;DHT22;11694;-36.632;-64.318;2022-09-30T17:22:03;27.40;99.90
23053;DHT22;11694;-36.632;-64.318;2022-09-30T17:24:31;27.20;99.90
23053;DHT22;11694;-36.632;-64.318;2022-09-30T17:26:58;27.20;99.90
23053;DHT22;11694;-36.632;-64.318;2022-09-30T17:29:26;27.30;99.90
23053;DHT22;11694;-36.632;-64.318;2022-09-30T17:31:53;27.10;99.90
23053;DHT22;11694;-36.632;-64.318;2022-09-30T17:34:21;27.20;99.90
23053;DHT22;11694;-36.632;-64.318;2022-09-30T17:36:48;27.30;99.90
23053;DHT22;11694;-36.632;-64.318;2022-09-30T17:39:15;27.30;99.90
23053;DHT22;11694;-36.632;-64.318;2022-09-30T17:41:42;27.20;99.90
23053;DHT22;11694;-36.632;-64.318;2022-09-30T17:44:27;27.20;99.90
23053;DHT22;11694;-36.632;-64.318;2022-09-30T17:46:55;27.30;99.90
23053;DHT22;11694;-36.632;-64.318;2022-09-30T17:49:31;27.30;99.90
23053;DHT22;11694;-36.632;-64.318;2022-09-30T17:52:02;27.40;99.90
23053;DHT22;11694;-36.632;-64.318;2022-09-30T17:54:29;27.40;99.90
23053;DHT22;11694;-36.632;-64.318;2022-09-30T17:56:58;27.50;99.90
23053;DHT22;11694;-36.632;-64.318;2022-09-30T17:59:25;27.40;99.90